Airport View

Enter AWOS ICAO identifier for current METAR.

ex. KFNL

KTOC 040535Z AUTO 00000KT 10SM CLR 19/18 A2995 RMK AO2 T01880177

4 Aug 2020 05:55

Frequency: 119.625

Phone: 706-297-7473

Other Area AWOS: KAJR - K18A - KCEU - KJCA

TAF KAND 032339Z 0400/0424 05009KT P6SM SHRA FEW070 BKN110 TEMPO 0400/0402 4SM TSRA BKN030CB FM040400 34004KT P6SM SCT060 SCT110 FM040900 VRB03KT 5SM BR FEW008 SCT050 FM041300 24007KT P6SM SCT050